Terminal Aerodrome Forecast
Issued by NWS

Home | Current Version | Previous Version | Text Only | Print | Product List | Glossary On
Versions: 1 2 3 4 5 6 7 8 9 10 11 12 13 14 15
000
FTUS45 KABQ 211726
TAFLVS
TAF
KLVS 211726Z 2118/2218 32013KT P6SM SKC
     FM212100 25011G18KT P6SM SKC
     FM220100 33006KT P6SM SCT200
     FM220600 24012G20KT P6SM BKN200
     FM221700 25020G30KT P6SM BKN200=

USA.gov is the U.S. government's official web portal to all federal, state and local government web resources and services.